sensor_id;sensor_type;location;lat;lon;timestamp;P1;durP1;ratioP1;P2;durP2;ratioP2
54368;SDS011;40266;52.434;17.056;2022-08-19T00:02:03;26.40;;;15.00;;
54368;SDS011;40266;52.434;17.056;2022-08-19T00:16:05;24.60;;;15.10;;
54368;SDS011;40266;52.434;17.056;2022-08-19T00:22:43;31.90;;;15.40;;
54368;SDS011;40266;52.434;17.056;2022-08-19T00:33:10;25.50;;;14.30;;
54368;SDS011;40266;52.434;17.056;2022-08-19T00:48:09;24.30;;;15.30;;
54368;SDS011;40266;52.434;17.056;2022-08-19T01:03:11;27.60;;;14.40;;
54368;SDS011;40266;52.434;17.056;2022-08-19T01:18:46;24.50;;;14.10;;
54368;SDS011;40266;52.434;17.056;2022-08-19T01:29:41;24.70;;;13.90;;
54368;SDS011;40266;52.434;17.056;2022-08-19T01:37:13;21.10;;;13.80;;
54368;SDS011;40266;52.434;17.056;2022-08-19T01:40:38;20.70;;;14.40;;
54368;SDS011;40266;52.434;17.056;2022-08-19T01:47:32;24.70;;;13.70;;
54368;SDS011;40266;52.434;17.056;2022-08-19T01:51:36;23.40;;;13.80;;
54368;SDS011;40266;52.434;17.056;2022-08-19T02:01:14;20.40;;;13.70;;
54368;SDS011;40266;52.434;17.056;2022-08-19T02:04:32;19.10;;;13.40;;
54368;SDS011;40266;52.434;17.056;2022-08-19T02:42:28;19.40;;;12.40;;
54368;SDS011;40266;52.434;17.056;2022-08-19T02:49:52;22.10;;;13.00;;
54368;SDS011;40266;52.434;17.056;2022-08-19T02:53:14;17.30;;;12.10;;
54368;SDS011;40266;52.434;17.056;2022-08-19T03:00:46;20.40;;;13.10;;
54368;SDS011;40266;52.434;17.056;2022-08-19T03:07:51;20.90;;;11.40;;
54368;SDS011;40266;52.434;17.056;2022-08-19T03:15:09;20.40;;;12.70;;
54368;SDS011;40266;52.434;17.056;2022-08-19T03:22:11;25.40;;;12.30;;
54368;SDS011;40266;52.434;17.056;2022-08-19T03:25:24;18.70;;;11.50;;
54368;SDS011;40266;52.434;17.056;2022-08-19T03:28:34;23.40;;;11.10;;
54368;SDS011;40266;52.434;17.056;2022-08-19T03:31:49;20.70;;;12.70;;
54368;SDS011;40266;52.434;17.056;2022-08-19T03:38:53;23.00;;;12.20;;
54368;SDS011;40266;52.434;17.056;2022-08-19T03:46:13;18.10;;;11.50;;
54368;SDS011;40266;52.434;17.056;2022-08-19T03:53:18;23.90;;;13.70;;
54368;SDS011;40266;52.434;17.056;2022-08-19T03:56:14;21.50;;;12.70;;
54368;SDS011;40266;52.434;17.056;2022-08-19T03:59:28;20.30;;;13.10;;
54368;SDS011;40266;52.434;17.056;2022-08-19T04:03:04;19.80;;;12.80;;
54368;SDS011;40266;52.434;17.056;2022-08-19T04:09:19;26.70;;;14.80;;
54368;SDS011;40266;52.434;17.056;2022-08-19T04:15:52;18.80;;;13.40;;
54368;SDS011;40266;52.434;17.056;2022-08-19T04:19:02;30.10;;;14.90;;
54368;SDS011;40266;52.434;17.056;2022-08-19T04:22:30;31.20;;;14.80;;
54368;SDS011;40266;52.434;17.056;2022-08-19T04:25:19;27.30;;;14.50;;
54368;SDS011;40266;52.434;17.056;2022-08-19T04:28:12;20.30;;;13.30;;
54368;SDS011;40266;52.434;17.056;2022-08-19T04:31:14;24.50;;;14.40;;
54368;SDS011;40266;52.434;17.056;2022-08-19T04:34:25;24.30;;;14.50;;
54368;SDS011;40266;52.434;17.056;2022-08-19T04:37:50;22.00;;;13.90;;
54368;SDS011;40266;52.434;17.056;2022-08-19T04:40:56;23.40;;;13.80;;
54368;SDS011;40266;52.434;17.056;2022-08-19T04:44:01;23.10;;;14.40;;
54368;SDS011;40266;52.434;17.056;2022-08-19T04:54:17;25.30;;;14.10;;
54368;SDS011;40266;52.434;17.056;2022-08-19T05:05:42;27.10;;;14.20;;
54368;SDS011;40266;52.434;17.056;2022-08-19T05:09:22;20.90;;;13.30;;
54368;SDS011;40266;52.434;17.056;2022-08-19T05:16:06;26.50;;;14.60;;
54368;SDS011;40266;52.434;17.056;2022-08-19T05:19:05;19.30;;;12.70;;
54368;SDS011;40266;52.434;17.056;2022-08-19T05:22:18;20.80;;;13.30;;
54368;SDS011;40266;52.434;17.056;2022-08-19T05:32:06;19.40;;;12.10;;
54368;SDS011;40266;52.434;17.056;2022-08-19T05:35:10;21.70;;;13.70;;
54368;SDS011;40266;52.434;17.056;2022-08-19T05:38:37;22.50;;;12.90;;
54368;SDS011;40266;52.434;17.056;2022-08-19T05:41:31;32.40;;;13.60;;
54368;SDS011;40266;52.434;17.056;2022-08-19T05:44:27;18.80;;;12.40;;
54368;SDS011;40266;52.434;17.056;2022-08-19T05:47:36;22.00;;;12.30;;
54368;SDS011;40266;52.434;17.056;2022-08-19T05:54:52;21.10;;;11.90;;
54368;SDS011;40266;52.434;17.056;2022-08-19T06:00:52;23.50;;;12.60;;
54368;SDS011;40266;52.434;17.056;2022-08-19T06:03:38;22.80;;;12.10;;
54368;SDS011;40266;52.434;17.056;2022-08-19T06:13:20;19.30;;;12.60;;
54368;SDS011;40266;52.434;17.056;2022-08-19T06:16:39;21.90;;;12.70;;
54368;SDS011;40266;52.434;17.056;2022-08-19T06:19:46;18.50;;;12.20;;
54368;SDS011;40266;52.434;17.056;2022-08-19T06:26:54;22.20;;;11.20;;
54368;SDS011;40266;52.434;17.056;2022-08-19T06:29:52;21.40;;;11.80;;
54368;SDS011;40266;52.434;17.056;2022-08-19T06:32:47;21.30;;;11.20;;
54368;SDS011;40266;52.434;17.056;2022-08-19T06:35:43;18.40;;;11.10;;
54368;SDS011;40266;52.434;17.056;2022-08-19T06:38:34;20.00;;;11.50;;
54368;SDS011;40266;52.434;17.056;2022-08-19T06:41:43;19.50;;;10.90;;
54368;SDS011;40266;52.434;17.056;2022-08-19T06:44:34;17.30;;;10.60;;
54368;SDS011;40266;52.434;17.056;2022-08-19T06:47:27;17.30;;;11.60;;
54368;SDS011;40266;52.434;17.056;2022-08-19T06:50:13;22.60;;;11.40;;
54368;SDS011;40266;52.434;17.056;2022-08-19T06:52:59;21.70;;;11.70;;
54368;SDS011;40266;52.434;17.056;2022-08-19T06:58:45;17.00;;;10.80;;
54368;SDS011;40266;52.434;17.056;2022-08-19T07:02:02;18.80;;;11.00;;
54368;SDS011;40266;52.434;17.056;2022-08-19T07:04:50;21.50;;;11.40;;
54368;SDS011;40266;52.434;17.056;2022-08-19T07:07:40;23.50;;;11.20;;
54368;SDS011;40266;52.434;17.056;2022-08-19T07:10:31;25.60;;;11.80;;
54368;SDS011;40266;52.434;17.056;2022-08-19T07:13:15;19.50;;;11.90;;
54368;SDS011;40266;52.434;17.056;2022-08-19T07:16:05;29.40;;;12.00;;
54368;SDS011;40266;52.434;17.056;2022-08-19T07:18:54;15.90;;;11.30;;
54368;SDS011;40266;52.434;17.056;2022-08-19T07:21:39;18.00;;;10.70;;
54368;SDS011;40266;52.434;17.056;2022-08-19T07:24:23;18.80;;;11.30;;
54368;SDS011;40266;52.434;17.056;2022-08-19T07:27:10;22.70;;;12.10;;
54368;SDS011;40266;52.434;17.056;2022-08-19T07:30:11;20.10;;;11.50;;
54368;SDS011;40266;52.434;17.056;2022-08-19T07:32:58;18.10;;;10.50;;
54368;SDS011;40266;52.434;17.056;2022-08-19T07:39:31;17.40;;;10.80;;
54368;SDS011;40266;52.434;17.056;2022-08-19T07:42:55;23.30;;;12.00;;
54368;SDS011;40266;52.434;17.056;2022-08-19T07:47:12;23.90;;;11.40;;
54368;SDS011;40266;52.434;17.056;2022-08-19T07:53:46;20.10;;;12.30;;
54368;SDS011;40266;52.434;17.056;2022-08-19T08:01:21;19.40;;;12.00;;
54368;SDS011;40266;52.434;17.056;2022-08-19T08:05:06;23.70;;;12.00;;
54368;SDS011;40266;52.434;17.056;2022-08-19T08:15:39;18.60;;;12.50;;
54368;SDS011;40266;52.434;17.056;2022-08-19T08:18:55;21.90;;;12.20;;
54368;SDS011;40266;52.434;17.056;2022-08-19T08:22:08;19.30;;;12.20;;
54368;SDS011;40266;52.434;17.056;2022-08-19T08:25:22;19.00;;;11.40;;
54368;SDS011;40266;52.434;17.056;2022-08-19T08:28:43;21.50;;;11.80;;
54368;SDS011;40266;52.434;17.056;2022-08-19T08:31:56;17.70;;;12.00;;
54368;SDS011;40266;52.434;17.056;2022-08-19T08:35:23;20.90;;;12.90;;
54368;SDS011;40266;52.434;17.056;2022-08-19T08:45:25;23.30;;;13.90;;
54368;SDS011;40266;52.434;17.056;2022-08-19T08:48:51;24.30;;;13.80;;
54368;SDS011;40266;52.434;17.056;2022-08-19T08:58:42;20.10;;;13.10;;
54368;SDS011;40266;52.434;17.056;2022-08-19T09:02:25;19.10;;;11.90;;
54368;SDS011;40266;52.434;17.056;2022-08-19T09:05:25;22.40;;;13.40;;
54368;SDS011;40266;52.434;17.056;2022-08-19T09:19:02;19.50;;;12.30;;
54368;SDS011;40266;52.434;17.056;2022-08-19T09:24:56;22.50;;;12.10;;
54368;SDS011;40266;52.434;17.056;2022-08-19T09:28:08;16.90;;;11.80;;
54368;SDS011;40266;52.434;17.056;2022-08-19T09:35:21;18.00;;;11.50;;
54368;SDS011;40266;52.434;17.056;2022-08-19T09:38:35;17.40;;;11.90;;
54368;SDS011;40266;52.434;17.056;2022-08-19T09:42:03;19.30;;;11.80;;
54368;SDS011;40266;52.434;17.056;2022-08-19T09:45:19;23.60;;;11.80;;
54368;SDS011;40266;52.434;17.056;2022-08-19T09:48:18;21.10;;;13.80;;
54368;SDS011;40266;52.434;17.056;2022-08-19T09:51:51;18.30;;;12.10;;
54368;SDS011;40266;52.434;17.056;2022-08-19T09:54:44;21.00;;;12.60;;
54368;SDS011;40266;52.434;17.056;2022-08-19T09:57:49;19.70;;;13.10;;
54368;SDS011;40266;52.434;17.056;2022-08-19T10:04:05;19.70;;;12.10;;
54368;SDS011;40266;52.434;17.056;2022-08-19T10:13:41;29.70;;;12.30;;
54368;SDS011;40266;52.434;17.056;2022-08-19T10:16:36;18.30;;;12.10;;
54368;SDS011;40266;52.434;17.056;2022-08-19T10:19:24;18.30;;;11.20;;
54368;SDS011;40266;52.434;17.056;2022-08-19T10:22:40;20.00;;;10.60;;
54368;SDS011;40266;52.434;17.056;2022-08-19T10:25:27;16.80;;;10.50;;
54368;SDS011;40266;52.434;17.056;2022-08-19T10:28:36;14.60;;;9.80;;
54368;SDS011;40266;52.434;17.056;2022-08-19T10:34:40;17.40;;;10.80;;
54368;SDS011;40266;52.434;17.056;2022-08-19T10:37:39;18.40;;;11.80;;
54368;SDS011;40266;52.434;17.056;2022-08-19T10:40:46;15.70;;;10.10;;
54368;SDS011;40266;52.434;17.056;2022-08-19T10:43:44;15.40;;;9.30;;
54368;SDS011;40266;52.434;17.056;2022-08-19T10:46:59;14.60;;;8.70;;
54368;SDS011;40266;52.434;17.056;2022-08-19T10:49:49;15.30;;;9.30;;
54368;SDS011;40266;52.434;17.056;2022-08-19T10:53:03;21.60;;;9.60;;
54368;SDS011;40266;52.434;17.056;2022-08-19T10:56:11;15.70;;;9.40;;
54368;SDS011;40266;52.434;17.056;2022-08-19T10:59:22;17.20;;;10.20;;
54368;SDS011;40266;52.434;17.056;2022-08-19T11:02:18;19.30;;;9.60;;
54368;SDS011;40266;52.434;17.056;2022-08-19T11:05:05;15.40;;;9.70;;
54368;SDS011;40266;52.434;17.056;2022-08-19T11:08:20;17.90;;;9.90;;
54368;SDS011;40266;52.434;17.056;2022-08-19T11:11:26;13.40;;;9.10;;
54368;SDS011;40266;52.434;17.056;2022-08-19T11:14:32;19.50;;;10.00;;
54368;SDS011;40266;52.434;17.056;2022-08-19T11:17:31;15.70;;;8.70;;
54368;SDS011;40266;52.434;17.056;2022-08-19T11:20:14;16.60;;;9.40;;
54368;SDS011;40266;52.434;17.056;2022-08-19T11:23:05;19.80;;;9.60;;
54368;SDS011;40266;52.434;17.056;2022-08-19T11:25:59;21.20;;;9.70;;
54368;SDS011;40266;52.434;17.056;2022-08-19T11:28:46;18.50;;;8.60;;
54368;SDS011;40266;52.434;17.056;2022-08-19T11:31:31;16.70;;;8.70;;
54368;SDS011;40266;52.434;17.056;2022-08-19T11:34:45;12.40;;;7.60;;
54368;SDS011;40266;52.434;17.056;2022-08-19T11:37:27;14.90;;;8.20;;
54368;SDS011;40266;52.434;17.056;2022-08-19T11:40:30;12.50;;;6.90;;
54368;SDS011;40266;52.434;17.056;2022-08-19T11:43:36;12.30;;;7.60;;
54368;SDS011;40266;52.434;17.056;2022-08-19T11:46:19;14.60;;;7.40;;
54368;SDS011;40266;52.434;17.056;2022-08-19T11:49:04;15.10;;;8.60;;
54368;SDS011;40266;52.434;17.056;2022-08-19T11:52:04;15.20;;;7.90;;
54368;SDS011;40266;52.434;17.056;2022-08-19T11:54:47;25.50;;;8.90;;
54368;SDS011;40266;52.434;17.056;2022-08-19T11:57:47;13.90;;;8.00;;
54368;SDS011;40266;52.434;17.056;2022-08-19T12:00:34;13.00;;;8.70;;
54368;SDS011;40266;52.434;17.056;2022-08-19T12:03:37;14.10;;;8.30;;
54368;SDS011;40266;52.434;17.056;2022-08-19T12:06:33;11.50;;;8.10;;
54368;SDS011;40266;52.434;17.056;2022-08-19T12:10:25;11.70;;;7.80;;
54368;SDS011;40266;52.434;17.056;2022-08-19T12:13:14;12.40;;;7.50;;
54368;SDS011;40266;52.434;17.056;2022-08-19T12:16:05;12.80;;;7.80;;
54368;SDS011;40266;52.434;17.056;2022-08-19T12:19:17;15.80;;;8.20;;
54368;SDS011;40266;52.434;17.056;2022-08-19T12:22:13;15.30;;;8.70;;
54368;SDS011;40266;52.434;17.056;2022-08-19T12:25:04;12.90;;;7.70;;
54368;SDS011;40266;52.434;17.056;2022-08-19T12:27:47;17.10;;;7.90;;
54368;SDS011;40266;52.434;17.056;2022-08-19T12:30:39;14.20;;;7.60;;
54368;SDS011;40266;52.434;17.056;2022-08-19T12:33:31;14.40;;;7.30;;
54368;SDS011;40266;52.434;17.056;2022-08-19T12:39:51;14.60;;;7.50;;
54368;SDS011;40266;52.434;17.056;2022-08-19T12:42:39;15.20;;;7.50;;
54368;SDS011;40266;52.434;17.056;2022-08-19T12:45:47;15.80;;;7.90;;
54368;SDS011;40266;52.434;17.056;2022-08-19T12:48:35;12.20;;;7.40;;
54368;SDS011;40266;52.434;17.056;2022-08-19T12:51:39;12.80;;;7.40;;
54368;SDS011;40266;52.434;17.056;2022-08-19T12:54:37;16.90;;;7.70;;
54368;SDS011;40266;52.434;17.056;2022-08-19T12:57:21;17.80;;;9.10;;
54368;SDS011;40266;52.434;17.056;2022-08-19T13:04:10;16.90;;;7.60;;
54368;SDS011;40266;52.434;17.056;2022-08-19T13:07:45;12.20;;;7.90;;
54368;SDS011;40266;52.434;17.056;2022-08-19T13:14:02;16.20;;;10.10;;
54368;SDS011;40266;52.434;17.056;2022-08-19T13:19:59;17.60;;;10.90;;
54368;SDS011;40266;52.434;17.056;2022-08-19T13:34:04;19.70;;;11.90;;
54368;SDS011;40266;52.434;17.056;2022-08-19T13:37:12;17.60;;;10.70;;
54368;SDS011;40266;52.434;17.056;2022-08-19T13:39:55;16.80;;;11.00;;
54368;SDS011;40266;52.434;17.056;2022-08-19T13:42:47;19.90;;;11.30;;
54368;SDS011;40266;52.434;17.056;2022-08-19T13:45:38;16.40;;;10.80;;
54368;SDS011;40266;52.434;17.056;2022-08-19T13:48:27;17.80;;;10.20;;
54368;SDS011;40266;52.434;17.056;2022-08-19T13:51:33;18.60;;;11.90;;
54368;SDS011;40266;52.434;17.056;2022-08-19T13:54:17;18.30;;;11.70;;
54368;SDS011;40266;52.434;17.056;2022-08-19T13:57:20;17.70;;;12.00;;
54368;SDS011;40266;52.434;17.056;2022-08-19T14:00:45;19.40;;;11.30;;
54368;SDS011;40266;52.434;17.056;2022-08-19T14:03:41;18.20;;;11.80;;
54368;SDS011;40266;52.434;17.056;2022-08-19T14:06:35;20.50;;;11.90;;
54368;SDS011;40266;52.434;17.056;2022-08-19T14:09:48;16.30;;;11.70;;
54368;SDS011;40266;52.434;17.056;2022-08-19T14:13:34;22.10;;;12.40;;
54368;SDS011;40266;52.434;17.056;2022-08-19T14:16:25;21.60;;;11.90;;
54368;SDS011;40266;52.434;17.056;2022-08-19T14:19:38;20.50;;;12.60;;
54368;SDS011;40266;52.434;17.056;2022-08-19T14:22:25;19.00;;;11.70;;
54368;SDS011;40266;52.434;17.056;2022-08-19T14:25:18;18.90;;;12.30;;
54368;SDS011;40266;52.434;17.056;2022-08-19T14:28:12;20.10;;;12.70;;
54368;SDS011;40266;52.434;17.056;2022-08-19T14:30:58;20.60;;;14.20;;
54368;SDS011;40266;52.434;17.056;2022-08-19T14:34:04;20.90;;;13.20;;
54368;SDS011;40266;52.434;17.056;2022-08-19T14:36:48;19.50;;;14.00;;
54368;SDS011;40266;52.434;17.056;2022-08-19T14:39:46;18.70;;;12.60;;
54368;SDS011;40266;52.434;17.056;2022-08-19T14:42:32;28.80;;;13.50;;
54368;SDS011;40266;52.434;17.056;2022-08-19T14:48:40;21.50;;;14.60;;
54368;SDS011;40266;52.434;17.056;2022-08-19T14:51:34;22.10;;;13.30;;
54368;SDS011;40266;52.434;17.056;2022-08-19T14:57:18;22.80;;;13.90;;
54368;SDS011;40266;52.434;17.056;2022-08-19T15:00:37;20.90;;;13.30;;
54368;SDS011;40266;52.434;17.056;2022-08-19T15:03:23;19.60;;;13.50;;
54368;SDS011;40266;52.434;17.056;2022-08-19T15:06:07;17.50;;;13.50;;
54368;SDS011;40266;52.434;17.056;2022-08-19T15:08:54;30.90;;;14.60;;
54368;SDS011;40266;52.434;17.056;2022-08-19T15:11:43;20.40;;;13.80;;
54368;SDS011;40266;52.434;17.056;2022-08-19T15:14:30;20.10;;;14.90;;
54368;SDS011;40266;52.434;17.056;2022-08-19T15:17:17;20.60;;;14.20;;
54368;SDS011;40266;52.434;17.056;2022-08-19T15:20:32;21.30;;;13.80;;
54368;SDS011;40266;52.434;17.056;2022-08-19T15:23:19;19.30;;;13.90;;
54368;SDS011;40266;52.434;17.056;2022-08-19T15:26:27;20.80;;;15.20;;
54368;SDS011;40266;52.434;17.056;2022-08-19T15:29:19;24.20;;;13.70;;
54368;SDS011;40266;52.434;17.056;2022-08-19T15:32:13;21.80;;;13.70;;
54368;SDS011;40266;52.434;17.056;2022-08-19T15:35:18;19.40;;;13.10;;
54368;SDS011;40266;52.434;17.056;2022-08-19T15:38:03;20.00;;;13.10;;
54368;SDS011;40266;52.434;17.056;2022-08-19T15:41:34;26.20;;;14.30;;
54368;SDS011;40266;52.434;17.056;2022-08-19T15:44:12;19.50;;;12.60;;
54368;SDS011;40266;52.434;17.056;2022-08-19T15:50:37;20.50;;;13.20;;
54368;SDS011;40266;52.434;17.056;2022-08-19T15:56:30;21.60;;;13.40;;
54368;SDS011;40266;52.434;17.056;2022-08-19T15:59:42;18.20;;;12.10;;
54368;SDS011;40266;52.434;17.056;2022-08-19T16:02:49;17.50;;;11.60;;
54368;SDS011;40266;52.434;17.056;2022-08-19T16:09:06;18.60;;;12.80;;
54368;SDS011;40266;52.434;17.056;2022-08-19T16:12:12;16.40;;;11.30;;
54368;SDS011;40266;52.434;17.056;2022-08-19T16:15:07;16.30;;;10.80;;
54368;SDS011;40266;52.434;17.056;2022-08-19T16:18:07;15.20;;;11.70;;
54368;SDS011;40266;52.434;17.056;2022-08-19T16:21:52;16.00;;;10.80;;
54368;SDS011;40266;52.434;17.056;2022-08-19T16:25:00;18.60;;;11.50;;
54368;SDS011;40266;52.434;17.056;2022-08-19T16:27:45;16.90;;;10.50;;
54368;SDS011;40266;52.434;17.056;2022-08-19T16:31:15;20.10;;;13.30;;
54368;SDS011;40266;52.434;17.056;2022-08-19T16:38:01;26.80;;;13.50;;
54368;SDS011;40266;52.434;17.056;2022-08-19T17:15:06;21.00;;;15.40;;
54368;SDS011;40266;52.434;17.056;2022-08-19T17:18:35;26.60;;;16.90;;
54368;SDS011;40266;52.434;17.056;2022-08-19T17:24:39;26.90;;;18.30;;
54368;SDS011;40266;52.434;17.056;2022-08-19T17:27:23;25.80;;;18.40;;
54368;SDS011;40266;52.434;17.056;2022-08-19T17:30:29;28.90;;;18.90;;
54368;SDS011;40266;52.434;17.056;2022-08-19T17:33:15;23.80;;;18.60;;
54368;SDS011;40266;52.434;17.056;2022-08-19T17:36:21;25.60;;;18.90;;
54368;SDS011;40266;52.434;17.056;2022-08-19T17:39:08;29.20;;;17.90;;
54368;SDS011;40266;52.434;17.056;2022-08-19T17:42:07;28.20;;;18.70;;
54368;SDS011;40266;52.434;17.056;2022-08-19T17:45:12;25.10;;;17.90;;
54368;SDS011;40266;52.434;17.056;2022-08-19T17:48:13;34.70;;;18.90;;
54368;SDS011;40266;52.434;17.056;2022-08-19T17:51:24;30.00;;;17.90;;
54368;SDS011;40266;52.434;17.056;2022-08-19T17:57:48;22.60;;;17.00;;
54368;SDS011;40266;52.434;17.056;2022-08-19T18:00:52;24.10;;;16.60;;
54368;SDS011;40266;52.434;17.056;2022-08-19T18:03:41;22.30;;;16.80;;
54368;SDS011;40266;52.434;17.056;2022-08-19T18:12:46;22.10;;;16.10;;
54368;SDS011;40266;52.434;17.056;2022-08-19T18:26:29;30.80;;;18.90;;
54368;SDS011;40266;52.434;17.056;2022-08-19T18:29:55;48.20;;;20.70;;
54368;SDS011;40266;52.434;17.056;2022-08-19T18:36:44;28.90;;;19.40;;
54368;SDS011;40266;52.434;17.056;2022-08-19T18:51:06;27.30;;;19.30;;
54368;SDS011;40266;52.434;17.056;2022-08-19T18:57:57;29.80;;;21.80;;
54368;SDS011;40266;52.434;17.056;2022-08-19T19:01:35;30.60;;;21.90;;
54368;SDS011;40266;52.434;17.056;2022-08-19T19:04:23;30.10;;;20.70;;
54368;SDS011;40266;52.434;17.056;2022-08-19T19:07:10;28.50;;;21.00;;
54368;SDS011;40266;52.434;17.056;2022-08-19T19:09:56;33.90;;;24.90;;
54368;SDS011;40266;52.434;17.056;2022-08-19T19:12:40;37.00;;;25.60;;
54368;SDS011;40266;52.434;17.056;2022-08-19T19:15:36;34.50;;;25.10;;
54368;SDS011;40266;52.434;17.056;2022-08-19T19:18:21;36.60;;;25.90;;
54368;SDS011;40266;52.434;17.056;2022-08-19T19:21:07;37.80;;;25.30;;
54368;SDS011;40266;52.434;17.056;2022-08-19T19:24:17;34.30;;;24.90;;
54368;SDS011;40266;52.434;17.056;2022-08-19T19:27:05;34.70;;;25.60;;
54368;SDS011;40266;52.434;17.056;2022-08-19T19:29:54;33.00;;;24.50;;
54368;SDS011;40266;52.434;17.056;2022-08-19T19:32:41;34.20;;;25.40;;
54368;SDS011;40266;52.434;17.056;2022-08-19T19:35:30;31.60;;;25.40;;
54368;SDS011;40266;52.434;17.056;2022-08-19T19:38:14;34.60;;;24.90;;
54368;SDS011;40266;52.434;17.056;2022-08-19T19:41:01;35.30;;;25.50;;
54368;SDS011;40266;52.434;17.056;2022-08-19T19:43:44;33.60;;;25.80;;
54368;SDS011;40266;52.434;17.056;2022-08-19T19:46:53;35.90;;;25.50;;
54368;SDS011;40266;52.434;17.056;2022-08-19T19:49:48;36.40;;;27.50;;
54368;SDS011;40266;52.434;17.056;2022-08-19T19:52:57;37.60;;;27.00;;
54368;SDS011;40266;52.434;17.056;2022-08-19T19:55:49;36.10;;;26.00;;
54368;SDS011;40266;52.434;17.056;2022-08-19T19:58:40;38.30;;;26.40;;
54368;SDS011;40266;52.434;17.056;2022-08-19T20:01:26;37.10;;;28.40;;
54368;SDS011;40266;52.434;17.056;2022-08-19T20:04:12;57.60;;;30.70;;
54368;SDS011;40266;52.434;17.056;2022-08-19T20:07:06;51.60;;;27.20;;
54368;SDS011;40266;52.434;17.056;2022-08-19T20:10:29;49.40;;;30.10;;
54368;SDS011;40266;52.434;17.056;2022-08-19T20:13:36;44.90;;;29.00;;
54368;SDS011;40266;52.434;17.056;2022-08-19T20:16:25;41.20;;;29.30;;
54368;SDS011;40266;52.434;17.056;2022-08-19T20:19:17;36.60;;;27.30;;
54368;SDS011;40266;52.434;17.056;2022-08-19T20:22:03;37.10;;;28.40;;
54368;SDS011;40266;52.434;17.056;2022-08-19T20:25:11;38.30;;;26.60;;
54368;SDS011;40266;52.434;17.056;2022-08-19T20:28:04;37.60;;;27.50;;
54368;SDS011;40266;52.434;17.056;2022-08-19T20:31:00;37.80;;;27.90;;
54368;SDS011;40266;52.434;17.056;2022-08-19T20:33:45;38.50;;;28.20;;
54368;SDS011;40266;52.434;17.056;2022-08-19T20:36:53;52.80;;;30.90;;
54368;SDS011;40266;52.434;17.056;2022-08-19T20:39:56;42.90;;;27.10;;
54368;SDS011;40266;52.434;17.056;2022-08-19T20:45:49;35.00;;;27.00;;
54368;SDS011;40266;52.434;17.056;2022-08-19T20:48:52;33.60;;;25.50;;
54368;SDS011;40266;52.434;17.056;2022-08-19T20:55:25;35.70;;;24.90;;
54368;SDS011;40266;52.434;17.056;2022-08-19T20:58:23;32.00;;;24.80;;
54368;SDS011;40266;52.434;17.056;2022-08-19T21:04:13;29.80;;;23.90;;
54368;SDS011;40266;52.434;17.056;2022-08-19T21:07:03;29.00;;;22.70;;
54368;SDS011;40266;52.434;17.056;2022-08-19T21:10:18;30.40;;;23.80;;
54368;SDS011;40266;52.434;17.056;2022-08-19T21:17:21;27.80;;;22.40;;
54368;SDS011;40266;52.434;17.056;2022-08-19T21:20:24;29.50;;;23.40;;
54368;SDS011;40266;52.434;17.056;2022-08-19T21:26:41;29.60;;;24.30;;
54368;SDS011;40266;52.434;17.056;2022-08-19T21:29:34;31.00;;;24.10;;
54368;SDS011;40266;52.434;17.056;2022-08-19T21:32:27;30.10;;;23.50;;
54368;SDS011;40266;52.434;17.056;2022-08-19T21:35:34;31.80;;;25.90;;
54368;SDS011;40266;52.434;17.056;2022-08-19T21:38:30;29.30;;;24.10;;
54368;SDS011;40266;52.434;17.056;2022-08-19T21:41:36;29.80;;;22.80;;
54368;SDS011;40266;52.434;17.056;2022-08-19T21:44:25;29.80;;;23.00;;
54368;SDS011;40266;52.434;17.056;2022-08-19T21:47:08;29.30;;;23.10;;
54368;SDS011;40266;52.434;17.056;2022-08-19T21:49:57;32.40;;;25.10;;
54368;SDS011;40266;52.434;17.056;2022-08-19T21:52:40;31.50;;;25.80;;
54368;SDS011;40266;52.434;17.056;2022-08-19T21:55:52;32.70;;;25.40;;
54368;SDS011;40266;52.434;17.056;2022-08-19T21:58:45;33.20;;;26.60;;
54368;SDS011;40266;52.434;17.056;2022-08-19T22:01:28;32.20;;;26.80;;
54368;SDS011;40266;52.434;17.056;2022-08-19T22:04:11;39.50;;;28.30;;
54368;SDS011;40266;52.434;17.056;2022-08-19T22:06:54;38.90;;;29.00;;
54368;SDS011;40266;52.434;17.056;2022-08-19T22:09:41;35.20;;;28.30;;
54368;SDS011;40266;52.434;17.056;2022-08-19T22:12:28;37.10;;;29.90;;
54368;SDS011;40266;52.434;17.056;2022-08-19T22:15:18;32.40;;;27.70;;
54368;SDS011;40266;52.434;17.056;2022-08-19T22:18:05;35.60;;;29.20;;
54368;SDS011;40266;52.434;17.056;2022-08-19T22:20:48;34.20;;;29.90;;
54368;SDS011;40266;52.434;17.056;2022-08-19T22:23:32;37.50;;;30.70;;
54368;SDS011;40266;52.434;17.056;2022-08-19T22:26:15;37.50;;;30.00;;
54368;SDS011;40266;52.434;17.056;2022-08-19T22:29:10;37.10;;;30.10;;
54368;SDS011;40266;52.434;17.056;2022-08-19T22:32:16;36.30;;;29.50;;
54368;SDS011;40266;52.434;17.056;2022-08-19T22:35:14;31.10;;;27.20;;
54368;SDS011;40266;52.434;17.056;2022-08-19T22:38:05;33.80;;;30.00;;
54368;SDS011;40266;52.434;17.056;2022-08-19T22:40:54;36.80;;;29.00;;
54368;SDS011;40266;52.434;17.056;2022-08-19T22:47:14;33.60;;;28.70;;
54368;SDS011;40266;52.434;17.056;2022-08-19T22:50:45;35.60;;;31.70;;
54368;SDS011;40266;52.434;17.056;2022-08-19T22:53:54;34.70;;;29.40;;
54368;SDS011;40266;52.434;17.056;2022-08-19T23:00:04;35.70;;;30.50;;
54368;SDS011;40266;52.434;17.056;2022-08-19T23:02:50;32.90;;;28.90;;
54368;SDS011;40266;52.434;17.056;2022-08-19T23:06:23;32.90;;;29.30;;
54368;SDS011;40266;52.434;17.056;2022-08-19T23:09:55;34.90;;;31.10;;
54368;SDS011;40266;52.434;17.056;2022-08-19T23:12:42;35.10;;;29.40;;
54368;SDS011;40266;52.434;17.056;2022-08-19T23:19:09;36.20;;;29.40;;
54368;SDS011;40266;52.434;17.056;2022-08-19T23:22:05;32.90;;;28.10;;
54368;SDS011;40266;52.434;17.056;2022-08-19T23:25:37;33.30;;;28.90;;
54368;SDS011;40266;52.434;17.056;2022-08-19T23:28:44;36.30;;;30.90;;
54368;SDS011;40266;52.434;17.056;2022-08-19T23:31:53;36.20;;;32.30;;
54368;SDS011;40266;52.434;17.056;2022-08-19T23:34:58;34.50;;;30.10;;
54368;SDS011;40266;52.434;17.056;2022-08-19T23:38:09;34.60;;;28.90;;
54368;SDS011;40266;52.434;17.056;2022-08-19T23:40:50;34.90;;;29.60;;
54368;SDS011;40266;52.434;17.056;2022-08-19T23:43:44;36.40;;;31.40;;
54368;SDS011;40266;52.434;17.056;2022-08-19T23:46:46;59.40;;;29.70;;
54368;SDS011;40266;52.434;17.056;2022-08-19T23:50:19;36.20;;;29.80;;
54368;SDS011;40266;52.434;17.056;2022-08-19T23:53:21;32.90;;;29.00;;
54368;SDS011;40266;52.434;17.056;2022-08-19T23:56:53;33.60;;;29.40;;
